Time;durP1;ratioP1;P1;durP2;ratioP2;P2;SDS_P1;SDS_P2;PMS_P1;PMS_P2;Temp;Humidity;BMP_temperature;BMP_pressure;BME280_temperature;BME280_humidity;BME280_pressure;Samples;Min_cycle;Max_cycle;Signal;HPM_P1;HPM_P2
2022/08/10 00:00:57;;;;;;;0.70;0.10;;;23.30;99.90;;;;;;4990747;28;20484;-74
2022/08/10 00:03:25;;;;;;;0.70;0.20;;;23.20;99.90;;;;;;4991449;28;20464;-74
2022/08/10 00:05:55;;;;;;;0.80;0.57;;;23.20;99.90;;;;;;4992311;28;20507;-75
2022/08/10 00:08:24;;;;;;;0.90;0.50;;;23.20;99.90;;;;;;4992873;28;20778;-75
2022/08/10 00:10:53;;;;;;;0.70;0.13;;;23.10;99.90;;;;;;5014912;28;20476;-75
2022/08/10 00:13:22;;;;;;;0.70;0.30;;;23.10;99.90;;;;;;5012197;28;20470;-75
2022/08/10 00:15:51;;;;;;;0.93;0.77;;;23.00;99.90;;;;;;5012010;28;20769;-75
2022/08/10 00:18:23;;;;;;;0.70;0.30;;;23.00;99.90;;;;;;5011135;28;20448;-74
2022/08/10 00:21:03;;;;;;;0.90;0.30;;;23.00;99.90;;;;;;5011247;28;20571;-73
2022/08/10 00:23:32;;;;;;;0.70;0.20;;;22.90;99.90;;;;;;5011171;28;20544;-74
2022/08/10 00:26:00;;;;;;;0.70;0.20;;;22.90;99.90;;;;;;5011377;28;20866;-74
2022/08/10 00:28:28;;;;;;;0.70;0.13;;;22.90;99.90;;;;;;5009719;28;20452;-75
2022/08/10 00:30:56;;;;;;;0.70;0.10;;;22.80;99.90;;;;;;5011570;28;20451;-75
2022/08/10 00:33:25;;;;;;;0.70;0.20;;;22.80;99.90;;;;;;5011568;28;20498;-75
2022/08/10 00:35:53;;;;;;;0.70;0.20;;;22.80;99.90;;;;;;5011425;28;20536;-75
2022/08/10 00:38:22;;;;;;;0.70;0.17;;;22.80;99.90;;;;;;5011179;28;20463;-74
2022/08/10 00:40:50;;;;;;;0.80;0.50;;;22.80;99.90;;;;;;5005945;28;21044;-75
2022/08/10 00:43:18;;;;;;;0.70;0.10;;;22.70;99.90;;;;;;5011026;28;20475;-74
2022/08/10 00:45:51;;;;;;;0.70;0.20;;;22.70;99.90;;;;;;5011488;28;20452;-75
2022/08/10 00:48:29;;;;;;;0.70;0.30;;;22.70;99.90;;;;;;5011239;28;20516;-75
2022/08/10 00:50:58;;;;;;;0.70;0.10;;;22.70;99.90;;;;;;5010551;28;20432;-75
2022/08/10 00:53:27;;;;;;;0.70;0.20;;;22.70;99.90;;;;;;5011041;28;20467;-75
2022/08/10 00:55:56;;;;;;;0.70;0.10;;;22.70;99.90;;;;;;5011086;28;20631;-75
2022/08/10 00:58:45;;;;;;;0.70;0.20;;;22.60;99.90;;;;;;5010155;28;20819;-75
2022/08/10 01:01:13;;;;;;;0.70;0.20;;;22.60;99.90;;;;;;5011250;28;20800;-75
2022/08/10 01:04:03;;;;;;;0.70;0.10;;;22.60;99.90;;;;;;5012575;28;20472;-74
2022/08/10 01:07:01;;;;;;;0.70;0.20;;;22.50;99.90;;;;;;5015307;28;20457;-75
2022/08/10 01:09:39;;;;;;;0.70;0.20;;;22.50;99.90;;;;;;5014369;28;20451;-74
2022/08/10 01:12:25;;;;;;;0.90;0.43;;;22.40;99.90;;;;;;5000426;28;20455;-74
2022/08/10 01:15:16;;;;;;;0.70;0.10;;;22.40;99.90;;;;;;5014697;28;20516;-74
2022/08/10 01:17:52;;;;;;;1.00;0.30;;;22.40;99.90;;;;;;5013461;28;20444;-74
2022/08/10 01:20:34;;;;;;;0.70;0.30;;;22.40;99.90;;;;;;5014417;28;20854;-74
2022/08/10 01:23:42;;;;;;;0.70;0.10;;;22.40;99.90;;;;;;5014443;28;20800;-74
2022/08/10 01:26:34;;;;;;;0.70;0.20;;;22.30;99.90;;;;;;5014653;28;20484;-74
2022/08/10 01:29:21;;;;;;;0.70;0.20;;;22.30;99.90;;;;;;5003560;28;20544;-74
2022/08/10 01:31:55;;;;;;;0.70;0.20;;;22.30;99.90;;;;;;4994999;28;20441;-74
2022/08/10 01:34:28;;;;;;;0.70;0.10;;;22.20;99.90;;;;;;4994774;28;20467;-74
2022/08/10 01:37:03;;;;;;;0.70;0.20;;;22.20;99.90;;;;;;4996446;28;20936;-74
2022/08/10 01:39:37;;;;;;;0.70;0.20;;;22.20;99.90;;;;;;5014310;28;20538;-74
2022/08/10 01:42:07;;;;;;;0.70;0.10;;;22.10;99.90;;;;;;5013883;28;20990;-74
2022/08/10 01:44:37;;;;;;;0.70;0.40;;;22.10;99.90;;;;;;5013984;28;20556;-73
2022/08/10 01:50:02;;;;;;;0.70;0.10;;;22.00;99.90;;;;;;5014418;28;20449;-74
2022/08/10 01:52:31;;;;;;;0.70;0.20;;;22.00;99.90;;;;;;5015640;28;20934;-75
2022/08/10 01:55:00;;;;;;;0.70;0.20;;;;;;;;;;5011553;28;20472;-74
2022/08/10 01:57:32;;;;;;;0.70;0.27;;;21.90;99.90;;;;;;5014032;28;20460;-75
2022/08/10 02:00:01;;;;;;;0.80;0.43;;;21.90;99.90;;;;;;5014375;28;20536;-75
2022/08/10 02:02:33;;;;;;;0.90;0.60;;;21.90;99.90;;;;;;5013205;28;20484;-75
2022/08/10 02:05:03;;;;;;;0.80;0.37;;;21.90;99.90;;;;;;5013481;28;20456;-75
2022/08/10 02:07:33;;;;;;;0.70;0.23;;;21.90;99.90;;;;;;5013600;28;20448;-75
2022/08/10 02:10:10;;;;;;;1.00;0.70;;;21.90;99.90;;;;;;5014239;28;20433;-75
2022/08/10 02:12:40;;;;;;;0.70;0.10;;;21.90;99.90;;;;;;5013654;28;20542;-75
2022/08/10 02:15:12;;;;;;;0.70;0.20;;;21.90;99.90;;;;;;5013076;28;20445;-74
2022/08/10 02:17:45;;;;;;;0.70;0.20;;;21.90;99.90;;;;;;5011534;28;20497;-75
2022/08/10 02:20:33;;;;;;;0.70;0.20;;;22.00;99.90;;;;;;5012973;28;20466;-75
2022/08/10 02:23:04;;;;;;;0.70;0.10;;;21.90;99.90;;;;;;5013065;28;20484;-75
2022/08/10 02:25:34;;;;;;;0.70;0.20;;;21.90;99.90;;;;;;5013077;28;20479;-73
2022/08/10 02:28:12;;;;;;;0.70;0.20;;;21.90;99.90;;;;;;5009979;28;20890;-73
2022/08/10 02:31:01;;;;;;;0.70;0.20;;;21.80;99.90;;;;;;4993661;28;20533;-74
2022/08/10 02:33:31;;;;;;;0.70;0.30;;;21.80;99.90;;;;;;4992576;28;20531;-75
2022/08/10 02:36:06;;;;;;;0.70;0.10;;;21.80;99.90;;;;;;4999085;28;20475;-75
2022/08/10 02:38:38;;;;;;;0.70;0.10;;;21.80;99.90;;;;;;5011552;28;20968;-74
2022/08/10 02:41:31;;;;;;;0.70;0.20;;;21.80;99.90;;;;;;5012768;28;20503;-75
2022/08/10 02:44:25;;;;;;;0.70;0.20;;;21.80;99.90;;;;;;5012698;28;21017;-73
2022/08/10 02:47:21;;;;;;;2.93;0.50;;;21.70;99.90;;;;;;5011245;28;20447;-75
2022/08/10 02:49:56;;;;;;;0.70;0.30;;;21.70;99.90;;;;;;5012375;28;20448;-74
2022/08/10 02:52:34;;;;;;;0.80;0.50;;;21.60;99.90;;;;;;5012502;28;21017;-74
2022/08/10 02:55:07;;;;;;;0.70;0.20;;;21.60;99.90;;;;;;5013868;28;20468;-74
2022/08/10 02:57:50;;;;;;;0.80;0.40;;;21.60;99.90;;;;;;5009404;28;20907;-74
2022/08/10 03:00:42;;;;;;;0.70;0.20;;;21.50;99.90;;;;;;5015925;28;20464;-74
2022/08/10 03:03:15;;;;;;;0.70;0.10;;;21.40;99.90;;;;;;5017301;28;20480;-74
2022/08/10 03:05:47;;;;;;;0.70;0.10;;;21.40;99.90;;;;;;5013948;28;20476;-73
2022/08/10 03:08:21;;;;;;;0.70;0.20;;;21.40;99.90;;;;;;5012895;28;20508;-73
2022/08/10 03:10:50;;;;;;;1.33;1.20;;;21.40;99.90;;;;;;5013173;28;20847;-76
2022/08/10 03:13:20;;;;;;;1.07;0.43;;;21.40;99.90;;;;;;5012924;28;20493;-74
2022/08/10 03:15:50;;;;;;;0.70;0.20;;;21.40;99.90;;;;;;5013125;28;20987;-73
2022/08/10 03:18:21;;;;;;;0.80;0.50;;;21.30;99.90;;;;;;5012845;28;20476;-73
2022/08/10 03:20:52;;;;;;;0.80;0.30;;;21.20;99.90;;;;;;5013254;28;20444;-74
2022/08/10 03:23:24;;;;;;;0.70;0.17;;;21.20;99.90;;;;;;5010938;28;20479;-75
2022/08/10 03:25:55;;;;;;;0.70;0.20;;;21.20;99.90;;;;;;5011454;28;20809;-76
2022/08/10 03:28:26;;;;;;;0.70;0.13;;;21.90;99.90;;;;;;5012171;28;20579;-75
2022/08/10 03:30:54;;;;;;;0.70;0.20;;;21.10;99.90;;;;;;5012224;28;20836;-73
2022/08/10 03:33:26;;;;;;;0.73;0.23;;;21.10;99.90;;;;;;5012072;28;20546;-74
2022/08/10 03:35:55;;;;;;;0.70;0.20;;;21.00;99.90;;;;;;5014683;28;20474;-74
2022/08/10 03:38:44;;;;;;;0.70;0.10;;;21.00;99.90;;;;;;5011579;28;20869;-74
2022/08/10 03:41:14;;;;;;;0.70;0.20;;;21.00;99.90;;;;;;5011752;28;20788;-74
2022/08/10 03:43:44;;;;;;;0.70;0.20;;;21.00;99.90;;;;;;5012276;28;20563;-74
2022/08/10 03:46:13;;;;;;;0.70;0.17;;;21.00;99.90;;;;;;5011776;28;20465;-74
2022/08/10 03:48:42;;;;;;;0.70;0.20;;;21.00;99.90;;;;;;5011591;28;20571;-75
2022/08/10 03:51:19;;;;;;;0.70;0.30;;;21.00;99.90;;;;;;5011579;28;20452;-74
2022/08/10 03:53:48;;;;;;;0.70;0.10;;;21.00;99.90;;;;;;5014149;28;20886;-74
2022/08/10 03:56:34;;;;;;;0.70;0.20;;;21.00;99.90;;;;;;5011430;28;20531;-73
2022/08/10 03:59:03;;;;;;;0.93;0.93;;;21.00;99.90;;;;;;5007595;28;21139;-75
2022/08/10 04:01:31;;;;;;;0.90;0.30;;;20.90;99.90;;;;;;5015970;28;20465;-75
2022/08/10 04:04:19;;;;;;;0.70;0.20;;;20.90;99.90;;;;;;5006167;28;20460;-75
2022/08/10 04:06:55;;;;;;;0.70;0.13;;;20.90;99.90;;;;;;5011639;28;20506;-75
2022/08/10 04:09:25;;;;;;;0.80;0.33;;;20.90;99.90;;;;;;5011713;28;20448;-74
2022/08/10 04:12:13;;;;;;;0.70;0.20;;;20.80;99.90;;;;;;5010428;28;20521;-74
2022/08/10 04:14:41;;;;;;;0.70;0.20;;;20.80;99.90;;;;;;5011549;28;20436;-74
2022/08/10 04:17:18;;;;;;;5.60;5.10;;;20.70;99.90;;;;;;5011303;28;20456;-75
2022/08/10 04:20:10;;;;;;;0.80;0.30;;;20.70;99.90;;;;;;5011807;28;20499;-73
2022/08/10 04:22:41;;;;;;;0.70;0.10;;;20.70;99.90;;;;;;5011415;28;20494;-74
2022/08/10 04:25:12;;;;;;;0.70;0.20;;;20.70;99.90;;;;;;5011256;28;20441;-73
2022/08/10 04:27:40;;;;;;;0.70;0.30;;;20.60;99.90;;;;;;5011279;28;20790;-74
2022/08/10 04:30:09;;;;;;;0.70;0.20;;;20.60;99.90;;;;;;5010738;28;20448;-75
2022/08/10 04:32:38;;;;;;;0.70;0.30;;;20.60;99.90;;;;;;5009453;28;20947;-74
2022/08/10 04:35:10;;;;;;;1.90;1.80;;;20.60;99.90;;;;;;5011905;28;20444;-74
2022/08/10 04:37:41;;;;;;;0.80;0.50;;;20.60;99.90;;;;;;5012178;28;20458;-73
2022/08/10 04:40:15;;;;;;;0.70;0.13;;;20.50;99.90;;;;;;5014688;28;20775;-73
2022/08/10 04:43:02;;;;;;;0.70;0.30;;;20.50;99.90;;;;;;5015448;28;20488;-73
2022/08/10 04:45:39;;;;;;;0.70;0.20;;;20.60;99.90;;;;;;5014865;28;20490;-74
2022/08/10 04:48:20;;;;;;;0.70;0.20;;;20.60;99.90;;;;;;5014595;28;20443;-75
2022/08/10 04:51:08;;;;;;;0.70;0.10;;;20.60;99.90;;;;;;5010193;28;20464;-74
2022/08/10 04:53:48;;;;;;;0.70;0.10;;;20.60;99.90;;;;;;5015409;28;20814;-76
2022/08/10 04:56:34;;;;;;;0.70;0.10;;;20.60;99.90;;;;;;5015924;28;20527;-77
2022/08/10 04:59:02;;;;;;;0.70;0.20;;;20.60;99.90;;;;;;5015389;28;20440;-77
2022/08/10 05:01:31;;;;;;;0.70;0.17;;;20.60;99.90;;;;;;5014414;28;20451;-76
2022/08/10 05:04:19;;;;;;;0.80;0.23;;;20.60;99.90;;;;;;5014492;28;20962;-76
2022/08/10 05:07:09;;;;;;;0.70;0.40;;;20.60;99.90;;;;;;5014413;28;20440;-77
2022/08/10 05:09:45;;;;;;;0.70;0.10;;;20.70;99.90;;;;;;5014586;28;20967;-77
2022/08/10 05:12:32;;;;;;;0.70;0.20;;;20.70;99.90;;;;;;5014232;28;21041;-77
2022/08/10 05:15:05;;;;;;;0.70;0.20;;;20.70;99.90;;;;;;4997070;28;20916;-76
2022/08/10 05:17:33;;;;;;;0.67;0.10;;;20.70;99.90;;;;;;5015125;28;20448;-78
2022/08/10 05:20:02;;;;;;;0.80;0.30;;;20.70;99.90;;;;;;5025338;28;20954;-76
2022/08/10 05:22:35;;;;;;;0.70;0.20;;;20.70;99.90;;;;;;5013475;28;21009;-77
2022/08/10 05:25:07;;;;;;;0.70;0.10;;;20.80;99.90;;;;;;5014404;28;20495;-78
2022/08/10 05:27:35;;;;;;;0.70;0.13;;;20.80;99.90;;;;;;5016247;28;20444;-79
2022/08/10 05:30:04;;;;;;;0.70;0.20;;;20.90;99.90;;;;;;5015664;28;20437;-78
2022/08/10 05:32:33;;;;;;;0.70;0.20;;;20.90;99.90;;;;;;5014504;28;20547;-76
2022/08/10 05:35:21;;;;;;;0.70;0.20;;;20.90;99.90;;;;;;5014019;28;20451;-76
2022/08/10 05:37:51;;;;;;;0.70;0.30;;;20.90;99.90;;;;;;5012795;28;20444;-76
2022/08/10 05:40:42;;;;;;;0.70;0.27;;;20.90;99.90;;;;;;5013446;28;20468;-75
2022/08/10 05:43:16;;;;;;;0.67;0.20;;;21.00;99.90;;;;;;5013882;28;20484;-75
2022/08/10 05:45:44;;;;;;;0.70;0.20;;;21.00;99.90;;;;;;5000828;28;20449;-75
2022/08/10 05:48:33;;;;;;;0.70;0.20;;;;;;;;;;5007280;28;20448;-73
2022/08/10 05:51:21;;;;;;;0.70;0.10;;;21.20;99.90;;;;;;5009929;28;21002;-76
2022/08/10 05:53:50;;;;;;;0.70;0.10;;;21.20;99.90;;;;;;5013645;28;20468;-76
2022/08/10 05:56:36;;;;;;;0.70;0.10;;;21.20;99.90;;;;;;5008809;28;20452;-75
2022/08/10 05:59:26;;;;;;;0.87;0.73;;;21.30;99.90;;;;;;5018632;28;20457;-74
2022/08/10 06:02:19;;;;;;;0.70;0.20;;;21.30;99.90;;;;;;5016355;28;20447;-75
2022/08/10 06:05:06;;;;;;;0.70;0.30;;;21.30;99.90;;;;;;5014013;28;20498;-75
2022/08/10 06:07:36;;;;;;;0.77;0.43;;;21.40;99.90;;;;;;5014936;28;20444;-74
2022/08/10 06:10:07;;;;;;;0.70;0.20;;;21.50;99.90;;;;;;5014581;28;20444;-76
2022/08/10 06:12:40;;;;;;;0.90;0.60;;;21.60;99.90;;;;;;5014918;28;20901;-76
2022/08/10 06:15:23;;;;;;;0.87;0.60;;;21.60;99.90;;;;;;5014573;28;20979;-75
2022/08/10 06:18:13;;;;;;;0.70;0.10;;;21.80;99.90;;;;;;5014059;28;20444;-75
2022/08/10 06:20:42;;;;;;;0.70;0.10;;;21.80;99.90;;;;;;5014558;28;20531;-76
2022/08/10 06:23:11;;;;;;;0.70;0.20;;;21.80;99.90;;;;;;5015033;28;20572;-76
2022/08/10 06:25:39;;;;;;;0.70;0.10;;;21.90;99.90;;;;;;5004049;28;20476;-75
2022/08/10 06:28:32;;;;;;;0.70;0.20;;;21.90;99.90;;;;;;5005173;28;20433;-76
2022/08/10 06:31:02;;;;;;;0.70;0.17;;;22.00;99.90;;;;;;5014242;28;20447;-74
2022/08/10 06:33:33;;;;;;;0.70;0.20;;;22.10;99.90;;;;;;5009427;28;20822;-70
2022/08/10 06:36:02;;;;;;;0.70;0.20;;;22.10;99.90;;;;;;5003354;28;20476;-75
2022/08/10 06:38:33;;;;;;;0.70;0.20;;;22.20;99.90;;;;;;5010771;28;20471;-75
2022/08/10 06:41:04;;;;;;;0.70;0.20;;;22.30;99.90;;;;;;5013535;28;20542;-77
2022/08/10 06:43:35;;;;;;;0.70;0.20;;;22.30;99.90;;;;;;5003835;28;20483;-74
2022/08/10 06:46:11;;;;;;;0.70;0.20;;;22.40;99.90;;;;;;5005110;28;20448;-74
2022/08/10 06:48:47;;;;;;;0.70;0.10;;;22.40;99.90;;;;;;5012253;28;20446;-75
2022/08/10 06:51:20;;;;;;;0.70;0.20;;;22.50;99.90;;;;;;5013916;28;20487;-74
2022/08/10 06:53:50;;;;;;;0.70;0.20;;;22.50;99.90;;;;;;5010207;28;20473;-76
2022/08/10 06:56:23;;;;;;;0.70;0.20;;;22.60;99.90;;;;;;5005018;28;20470;-74
2022/08/10 06:59:09;;;;;;;0.70;0.10;;;22.60;99.90;;;;;;5012340;28;20444;-74
2022/08/10 07:01:53;;;;;;;1.53;0.30;;;22.70;99.90;;;;;;5014794;28;20479;-74
2022/08/10 07:04:26;;;;;;;0.70;0.10;;;22.70;99.90;;;;;;5014590;28;20833;-75
2022/08/10 07:07:03;;;;;;;0.70;0.10;;;22.70;99.90;;;;;;5012731;28;20479;-74
2022/08/10 07:09:34;;;;;;;0.70;0.10;;;22.70;99.90;;;;;;5012792;28;20444;-73
2022/08/10 07:12:04;;;;;;;0.70;0.20;;;22.80;99.90;;;;;;5012411;28;20451;-75
2022/08/10 07:14:42;;;;;;;0.70;0.10;;;22.90;99.90;;;;;;5012206;28;20971;-76
2022/08/10 07:17:12;;;;;;;0.70;0.10;;;22.90;99.90;;;;;;5013294;28;20452;-75
2022/08/10 07:19:45;;;;;;;0.70;0.10;;;23.00;99.90;;;;;;5015533;28;20462;-75
2022/08/10 07:22:22;;;;;;;0.70;0.10;;;23.50;99.90;;;;;;5006932;28;20579;-74
2022/08/10 07:25:12;;;;;;;0.70;0.20;;;23.20;99.90;;;;;;5012067;28;21027;-75
2022/08/10 07:27:41;;;;;;;0.70;0.17;;;23.10;99.90;;;;;;5011406;28;20451;-75
2022/08/10 07:30:30;;;;;;;0.70;0.20;;;23.20;99.90;;;;;;4997634;28;20452;-75
2022/08/10 07:33:01;;;;;;;0.70;0.20;;;23.20;99.90;;;;;;5013553;28;20500;-77
2022/08/10 07:35:31;;;;;;;0.70;0.20;;;23.30;99.90;;;;;;5013060;28;20518;-74
2022/08/10 07:38:15;;;;;;;0.70;0.10;;;23.30;99.90;;;;;;5012013;28;20456;-74
2022/08/10 07:40:44;;;;;;;0.70;0.20;;;23.40;99.90;;;;;;5014356;28;20460;-74
2022/08/10 07:43:15;;;;;;;1.33;0.77;;;23.40;99.90;;;;;;5011092;28;20464;-75
2022/08/10 07:45:46;;;;;;;0.70;0.20;;;23.50;99.90;;;;;;5006174;28;20460;-77
2022/08/10 07:48:16;;;;;;;0.70;0.10;;;23.50;99.90;;;;;;5011935;28;20448;-75
2022/08/10 07:50:46;;;;;;;0.70;0.10;;;23.60;99.90;;;;;;5012733;28;20452;-75
2022/08/10 07:53:19;;;;;;;0.70;0.10;;;23.70;99.90;;;;;;5014461;28;20555;-75
2022/08/10 07:55:49;;;;;;;0.70;0.20;;;23.70;99.90;;;;;;5013332;28;20793;-76
2022/08/10 07:58:39;;;;;;;0.70;0.20;;;23.80;99.90;;;;;;5013256;28;20452;-74
2022/08/10 08:01:22;;;;;;;0.70;0.20;;;23.80;99.90;;;;;;5012122;28;20519;-75
2022/08/10 08:03:52;;;;;;;0.70;0.20;;;23.90;99.90;;;;;;5012014;28;20571;-75
2022/08/10 08:06:40;;;;;;;0.90;0.20;;;24.00;99.90;;;;;;5012498;28;20451;-76
2022/08/10 08:09:08;;;;;;;0.70;0.10;;;24.00;99.90;;;;;;5012513;28;20543;-73
2022/08/10 08:11:37;;;;;;;4.73;1.53;;;24.10;99.90;;;;;;5012167;28;20539;-74
2022/08/10 08:14:08;;;;;;;0.70;0.20;;;24.20;99.90;;;;;;5011835;28;20522;-74
2022/08/10 08:16:40;;;;;;;0.70;0.20;;;24.20;99.90;;;;;;5014164;28;20441;-75
2022/08/10 08:19:09;;;;;;;0.70;0.20;;;24.30;99.90;;;;;;5013450;28;20527;-75
2022/08/10 08:21:55;;;;;;;0.70;0.20;;;24.30;99.90;;;;;;5017078;28;20452;-77
2022/08/10 08:24:44;;;;;;;0.70;0.20;;;24.40;99.90;;;;;;5017308;28;20853;-75
2022/08/10 08:27:15;;;;;;;0.70;0.10;;;24.50;99.90;;;;;;5018855;28;20432;-76
2022/08/10 08:29:46;;;;;;;1.20;0.47;;;24.50;99.90;;;;;;5002401;28;20536;-75
2022/08/10 08:32:21;;;;;;;0.80;0.40;;;24.50;99.90;;;;;;5016665;28;20458;-75
2022/08/10 08:34:52;;;;;;;0.70;0.10;;;24.50;99.90;;;;;;5021096;28;20444;-75
2022/08/10 08:37:22;;;;;;;0.80;0.23;;;24.60;99.90;;;;;;5022923;28;20444;-75
2022/08/10 08:40:14;;;;;;;0.70;0.13;;;24.70;99.90;;;;;;5025198;28;20451;-75
2022/08/10 08:43:11;;;;;;;0.70;0.10;;;24.80;99.90;;;;;;5023621;28;20487;-76
2022/08/10 08:45:51;;;;;;;0.70;0.13;;;24.80;99.90;;;;;;5023388;28;20479;-75
2022/08/10 08:48:46;;;;;;;0.70;0.10;;;24.90;99.90;;;;;;5016888;28;20439;-75
2022/08/10 08:51:28;;;;;;;0.70;0.10;;;25.00;99.90;;;;;;5012074;28;20453;-76
2022/08/10 08:54:29;;;;;;;0.70;0.27;;;25.10;99.90;;;;;;5009125;28;20460;-72
2022/08/10 08:57:06;;;;;;;0.70;0.20;;;25.10;99.90;;;;;;4992245;28;20473;-74
2022/08/10 08:59:50;;;;;;;0.70;0.20;;;25.20;99.90;;;;;;4992187;28;20928;-74
2022/08/10 09:02:33;;;;;;;0.70;0.20;;;25.30;99.90;;;;;;5009278;28;20462;-74
2022/08/10 09:05:16;;;;;;;0.70;0.30;;;25.30;99.90;;;;;;5010789;28;21002;-76
2022/08/10 09:08:21;;;;;;;0.70;0.10;;;25.40;99.90;;;;;;5010560;28;20525;-76
2022/08/10 09:10:53;;;;;;;0.70;0.20;;;25.50;99.90;;;;;;5011235;28;20455;-76
2022/08/10 09:13:28;;;;;;;0.70;0.10;;;25.60;99.90;;;;;;5011272;28;20470;-77
2022/08/10 09:16:10;;;;;;;0.70;0.10;;;25.70;99.90;;;;;;5011096;28;20796;-75
2022/08/10 09:18:45;;;;;;;0.70;0.20;;;25.80;99.90;;;;;;5011319;28;20452;-76
2022/08/10 09:21:21;;;;;;;0.70;0.10;;;25.90;99.90;;;;;;5010760;28;20493;-73
2022/08/10 09:23:58;;;;;;;0.70;0.20;;;26.00;99.90;;;;;;5008917;28;20464;-74
2022/08/10 09:26:42;;;;;;;0.70;0.10;;;26.00;99.90;;;;;;5015854;28;20835;-74
2022/08/10 09:29:14;;;;;;;0.70;0.10;;;26.10;99.90;;;;;;5015935;28;20480;-74
2022/08/10 09:31:45;;;;;;;0.70;0.20;;;26.10;99.90;;;;;;5012959;28;20551;-75
2022/08/10 09:34:46;;;;;;;0.70;0.10;;;26.20;99.90;;;;;;5013908;28;20448;-75
2022/08/10 09:37:43;;;;;;;0.70;0.20;;;26.30;99.90;;;;;;5013621;28;20530;-74
2022/08/10 09:40:40;;;;;;;0.70;0.20;;;26.30;99.90;;;;;;5013419;28;20943;-75
2022/08/10 09:43:40;;;;;;;0.70;0.20;;;26.50;99.90;;;;;;5014073;28;20464;-76
2022/08/10 09:46:20;;;;;;;0.70;0.17;;;26.50;99.90;;;;;;5013985;28;20490;-75
2022/08/10 09:49:02;;;;;;;0.70;0.20;;;26.60;99.90;;;;;;5013524;28;20947;-75
2022/08/10 09:51:40;;;;;;;0.70;0.10;;;26.80;99.90;;;;;;5014136;28;20528;-75
2022/08/10 09:54:38;;;;;;;0.70;0.20;;;26.90;99.90;;;;;;5013780;28;20464;-75
2022/08/10 09:57:18;;;;;;;0.70;0.20;;;26.90;99.90;;;;;;5013568;28;20555;-75
2022/08/10 10:00:09;;;;;;;0.70;0.20;;;26.80;99.90;;;;;;5004724;28;20445;-75
2022/08/10 10:02:54;;;;;;;0.70;0.20;;;26.90;99.90;;;;;;4993957;28;20461;-74
2022/08/10 10:05:33;;;;;;;0.70;0.20;;;26.90;99.90;;;;;;4993602;28;20536;-74
2022/08/10 10:08:09;;;;;;;0.70;0.10;;;27.00;99.90;;;;;;5003689;28;20445;-77
2022/08/10 10:10:48;;;;;;;0.70;0.20;;;27.10;99.90;;;;;;5012641;28;20462;-78
2022/08/10 10:13:24;;;;;;;0.70;0.10;;;27.10;99.90;;;;;;5013341;28;20464;-77
2022/08/10 10:16:32;;;;;;;0.80;0.30;;;27.00;99.90;;;;;;5013691;28;20448;-77
2022/08/10 10:19:11;;;;;;;0.70;0.30;;;27.00;99.90;;;;;;5013594;28;20451;-77
2022/08/10 10:21:46;;;;;;;0.80;0.30;;;26.90;99.90;;;;;;5013506;28;20937;-75
2022/08/10 10:24:32;;;;;;;0.70;0.20;;;27.10;99.90;;;;;;5013034;28;20852;-75
2022/08/10 10:27:13;;;;;;;0.70;0.30;;;27.20;99.90;;;;;;5013384;28;20479;-75
2022/08/10 10:29:53;;;;;;;0.70;0.30;;;27.40;99.90;;;;;;5013029;28;20531;-76
2022/08/10 10:32:34;;;;;;;0.70;0.20;;;27.60;99.90;;;;;;5013084;28;20425;-75
2022/08/10 10:35:14;;;;;;;0.70;0.20;;;27.70;99.90;;;;;;4993685;28;20441;-76
2022/08/10 10:37:45;;;;;;;0.90;0.53;;;27.80;99.90;;;;;;4992482;28;20426;-76
2022/08/10 10:40:37;;;;;;;0.97;0.60;;;28.00;99.90;;;;;;4993353;28;20492;-76
2022/08/10 10:43:19;;;;;;;0.70;0.20;;;28.20;99.90;;;;;;4993312;28;20465;-75
2022/08/10 10:45:58;;;;;;;0.70;0.20;;;28.20;99.90;;;;;;4993730;28;20527;-74
2022/08/10 10:48:41;;;;;;;1.20;0.47;;;28.20;99.90;;;;;;4993129;28;20444;-75
2022/08/10 10:51:14;;;;;;;0.70;0.10;;;28.30;99.90;;;;;;4993102;28;20418;-75
2022/08/10 10:53:49;;;;;;;0.70;0.20;;;28.40;99.90;;;;;;4992890;28;20464;-77
2022/08/10 10:56:24;;;;;;;0.70;0.20;;;28.40;99.90;;;;;;5003787;28;20444;-76
2022/08/10 10:59:03;;;;;;;0.80;0.30;;;28.50;99.90;;;;;;5012582;28;20538;-75
2022/08/10 11:01:58;;;;;;;0.90;0.30;;;28.50;99.90;;;;;;5011881;28;20994;-76
2022/08/10 11:04:35;;;;;;;0.70;0.10;;;28.40;99.90;;;;;;5011755;28;20961;-76
2022/08/10 11:07:17;;;;;;;0.70;0.10;;;28.50;99.90;;;;;;5011295;28;20472;-76
2022/08/10 11:09:56;;;;;;;0.70;0.10;;;28.50;99.90;;;;;;5011589;28;20437;-76
2022/08/10 11:12:49;;;;;;;0.70;0.23;;;28.70;99.90;;;;;;5011930;28;20476;-76
2022/08/10 11:15:27;;;;;;;0.70;0.10;;;28.70;99.90;;;;;;5012036;28;20444;-75
2022/08/10 11:18:00;;;;;;;0.70;0.10;;;28.90;99.90;;;;;;5012185;28;20459;-76
2022/08/10 11:20:36;;;;;;;0.80;0.40;;;29.00;99.90;;;;;;5011517;28;20840;-76
2022/08/10 11:23:20;;;;;;;1.00;0.20;;;29.20;99.90;;;;;;5011590;28;20479;-76
2022/08/10 11:25:55;;;;;;;0.70;0.17;;;29.20;99.90;;;;;;5011580;28;20471;-75
2022/08/10 11:28:32;;;;;;;0.70;0.20;;;29.30;99.90;;;;;;5006670;28;20459;-74
2022/08/10 11:31:12;;;;;;;0.70;0.20;;;29.40;99.90;;;;;;4992269;28;20452;-75
2022/08/10 11:33:47;;;;;;;0.77;0.27;;;29.50;99.90;;;;;;4991049;28;20795;-75
2022/08/10 11:36:42;;;;;;;0.70;0.20;;;29.50;99.90;;;;;;4992227;28;20441;-75
2022/08/10 11:39:17;;;;;;;1.07;0.40;;;29.50;99.90;;;;;;4992432;28;20445;-75
2022/08/10 11:41:52;;;;;;;0.80;0.50;;;29.40;99.90;;;;;;4992034;28;20830;-76
2022/08/10 11:44:47;;;;;;;0.70;0.20;;;29.00;99.90;;;;;;4992045;28;20932;-76
2022/08/10 11:47:19;;;;;;;0.70;0.20;;;29.00;99.90;;;;;;4992363;28;20480;-75
2022/08/10 11:49:53;;;;;;;0.70;0.10;;;29.10;99.90;;;;;;5013198;28;20436;-75
2022/08/10 11:52:29;;;;;;;0.70;0.10;;;29.20;99.90;;;;;;5013095;28;20479;-74
2022/08/10 11:55:04;;;;;;;0.70;0.10;;;29.30;99.90;;;;;;5008113;28;20470;-74
2022/08/10 11:57:34;;;;;;;0.70;0.20;;;29.40;99.90;;;;;;4992286;28;20451;-75
2022/08/10 12:00:21;;;;;;;0.70;0.20;;;29.40;99.90;;;;;;4992067;28;20433;-75
2022/08/10 12:02:54;;;;;;;1.30;0.40;;;29.40;99.90;;;;;;4996778;28;20476;-74
2022/08/10 12:05:27;;;;;;;0.70;0.17;;;29.30;99.90;;;;;;4991580;28;20520;-75
2022/08/10 12:08:17;;;;;;;0.70;0.20;;;29.20;99.90;;;;;;4998980;28;20436;-75
2022/08/10 12:11:06;;;;;;;0.70;0.20;;;29.20;99.90;;;;;;5010913;28;20433;-76
2022/08/10 12:13:41;;;;;;;0.70;0.20;;;29.20;99.90;;;;;;5010972;28;20472;-75
2022/08/10 12:16:31;;;;;;;0.70;0.20;;;29.30;99.90;;;;;;5011112;28;20771;-77
2022/08/10 12:19:05;;;;;;;0.80;0.30;;;29.40;99.90;;;;;;5011562;28;20507;-76
2022/08/10 12:21:38;;;;;;;0.70;0.20;;;29.40;99.90;;;;;;5011963;28;20431;-75
2022/08/10 12:24:16;;;;;;;0.70;0.40;;;29.50;99.90;;;;;;5011661;28;20464;-75
2022/08/10 12:26:53;;;;;;;0.70;0.30;;;29.50;99.90;;;;;;5010840;28;20479;-75
2022/08/10 12:29:27;;;;;;;0.70;0.10;;;29.60;99.90;;;;;;4999184;28;20445;-75
2022/08/10 12:32:03;;;;;;;0.70;0.20;;;29.70;99.90;;;;;;5011523;28;20456;-77
2022/08/10 12:34:40;;;;;;;0.70;0.20;;;29.90;99.90;;;;;;5011550;28;20472;-76
2022/08/10 12:37:19;;;;;;;0.70;0.10;;;29.90;99.90;;;;;;5011291;28;20536;-75
2022/08/10 12:39:58;;;;;;;0.70;0.20;;;30.00;99.90;;;;;;5011100;28;20463;-75
2022/08/10 12:42:52;;;;;;;0.70;0.20;;;30.10;99.90;;;;;;5011823;28;20471;-75
2022/08/10 12:45:48;;;;;;;0.90;0.40;;;30.10;99.90;;;;;;5011121;28;20452;-75
2022/08/10 12:48:26;;;;;;;0.80;0.40;;;30.20;99.90;;;;;;5008377;28;20443;-75
2022/08/10 12:51:01;;;;;;;0.70;0.10;;;30.10;99.90;;;;;;5010909;28;20436;-75
2022/08/10 12:53:40;;;;;;;0.70;0.10;;;30.00;99.90;;;;;;5011017;28;20467;-75
2022/08/10 12:56:08;;;;;;;0.70;0.10;;;29.90;99.90;;;;;;5010880;28;20447;-76
2022/08/10 12:58:41;;;;;;;0.70;0.10;;;29.90;99.90;;;;;;5010901;28;20446;-75
2022/08/10 13:01:33;;;;;;;0.70;0.20;;;29.90;99.90;;;;;;5014903;28;20507;-76
2022/08/10 13:04:28;;;;;;;0.70;0.20;;;29.80;99.90;;;;;;5014665;28;20839;-75
2022/08/10 13:07:01;;;;;;;0.70;0.20;;;29.90;99.90;;;;;;5014448;28;20994;-74
2022/08/10 13:09:30;;;;;;;0.80;0.30;;;29.90;99.90;;;;;;5014518;28;20483;-74
2022/08/10 13:12:02;;;;;;;0.70;0.17;;;29.90;99.90;;;;;;5014851;28;20447;-74
2022/08/10 13:14:57;;;;;;;0.77;0.37;;;29.90;99.90;;;;;;5014385;28;20444;-76
2022/08/10 13:17:29;;;;;;;0.70;0.10;;;30.00;99.90;;;;;;5014484;28;20436;-75
2022/08/10 13:20:17;;;;;;;0.70;0.10;;;30.00;99.90;;;;;;5014616;28;20880;-76
2022/08/10 13:22:49;;;;;;;0.70;0.20;;;30.20;99.90;;;;;;5014214;28;20551;-76
2022/08/10 13:25:25;;;;;;;0.93;0.67;;;30.30;99.90;;;;;;5014078;28;20443;-75
2022/08/10 13:27:55;;;;;;;0.70;0.20;;;30.30;99.90;;;;;;4995589;28;20768;-75
2022/08/10 13:30:47;;;;;;;0.80;0.40;;;30.40;99.90;;;;;;5014853;28;20441;-75
2022/08/10 13:33:19;;;;;;;1.10;0.77;;;30.50;99.90;;;;;;5014072;28;20467;-75
2022/08/10 13:36:08;;;;;;;0.80;0.30;;;30.40;99.90;;;;;;5009880;28;20442;-75
2022/08/10 13:38:39;;;;;;;0.70;0.17;;;30.40;99.90;;;;;;5008201;28;20433;-74
2022/08/10 13:41:09;;;;;;;0.70;0.20;;;30.30;99.90;;;;;;4994540;28;20468;-75
2022/08/10 13:43:47;;;;;;;0.70;0.20;;;30.50;99.90;;;;;;5008023;28;20465;-76